Time;durP1;ratioP1;P1;durP2;ratioP2;P2;SDS_P1;SDS_P2;PMS_P1;PMS_P2;Temp;Humidity;BMP_temperature;BMP_pressure;BME280_temperature;BME280_humidity;BME280_pressure;Samples;Min_cycle;Max_cycle;Signal;HPM_P1;HPM_P2
2022/09/20 00:01:40;;;;;;;;;11.86;8.71;;;;;9.77;100.00;99491.66;6325919;20;1796550;-48
2022/09/20 00:04:09;;;;;;;;;10.00;9.00;;;;;9.78;100.00;99481.78;6313800;20;2769098;-50
2022/09/20 00:06:37;;;;;;;;;9.00;9.00;;;;;9.78;100.00;99488.00;6282425;20;2746102;-52
2022/09/20 00:09:05;;;;;;;;;10.00;9.00;;;;;9.68;100.00;99492.19;6282012;20;2774293;-47
2022/09/20 00:11:37;;;;;;;;;12.50;10.00;;;;;9.66;100.00;99486.97;6285761;20;2782637;-52
2022/09/20 00:14:07;;;;;;;;;10.00;9.80;;;;;9.78;100.00;99482.66;6309608;20;2764843;-54
2022/09/20 00:16:40;;;;;;;;;12.00;11.20;;;;;9.60;100.00;99483.78;6305283;20;2789878;-51
2022/09/20 00:19:19;;;;;;;;;11.00;9.60;;;;;9.72;100.00;99483.03;6305558;20;2775633;-50
2022/09/20 00:21:47;;;;;;;;;13.00;11.00;;;;;9.73;100.00;99484.75;6281931;20;2789921;-50
2022/09/20 00:24:15;;;;;;;;;10.50;10.50;;;;;9.83;100.00;99493.94;6283969;20;2789910;-49
2022/09/20 00:26:44;;;;;;;;;12.67;11.67;;;;;9.66;100.00;99483.38;6280684;20;2795084;-48
2022/09/20 00:29:12;;;;;;;;;14.00;12.67;;;;;9.77;100.00;99486.28;6313932;20;3539837;-53
2022/09/20 00:31:41;;;;;;;;;12.50;12.50;;;;;9.65;100.00;99493.25;6316757;20;2802356;-49
2022/09/20 00:36:58;;;;;;;;;18.00;14.33;;;;;9.79;100.00;99484.34;6281428;20;3542001;-48
2022/09/20 00:39:26;;;;;;;;;13.00;13.00;;;;;9.76;100.00;99478.34;6316864;20;2805463;-52
2022/09/20 00:41:55;;;;;;;;;14.60;13.60;;;;;9.71;100.00;99470.56;6305986;20;2802376;-48
2022/09/20 00:45:17;;;;;;;;;14.00;11.50;;;;;9.88;100.00;99473.06;6282856;20;2788960;-50
2022/09/20 00:47:52;;;;;;;;;14.00;13.00;;;;;9.86;100.00;99469.63;6282397;20;2804085;-51
2022/09/20 00:50:41;;;;;;;;;15.00;13.33;;;;;10.00;100.00;99467.91;6279378;20;3536631;-49
2022/09/20 00:53:23;;;;;;;;;10.00;8.00;;;;;10.16;100.00;99460.59;6313681;20;2764904;-52
2022/09/20 00:56:05;;;;;;;;;9.00;9.00;;;;;10.16;100.00;99460.59;6281036;20;2746285;-53
2022/09/20 00:58:44;;;;;;;;;13.60;12.20;;;;;9.99;100.00;99463.50;6305673;20;2786851;-49
2022/09/20 01:01:11;;;;;;;;;13.00;12.00;;;;;10.07;100.00;99466.56;6279001;20;2801300;-52
2022/09/20 01:03:41;;;;;;;;;12.00;11.00;;;;;10.06;100.00;99470.22;6279472;20;2786743;-52
2022/09/20 01:06:14;;;;;;;;;11.50;11.50;;;;;10.07;100.00;99469.25;6308750;20;2798355;-52
2022/09/20 01:08:50;;;;;;;;;11.33;11.00;;;;;10.01;100.00;99466.97;6276883;20;2793083;-50
2022/09/20 01:11:19;;;;;;;;;10.40;10.00;;;;;10.04;100.00;99461.41;6335001;20;2794119;-53
2022/09/20 01:13:49;;;;;;;;;15.20;11.80;;;;;9.88;100.00;99467.72;6305973;20;2788847;-49
2022/09/20 01:16:20;;;;;;;;;11.33;11.33;;;;;9.94;100.00;99465.59;6277102;20;2797495;-48
2022/09/20 01:18:49;;;;;;;;;12.00;12.00;;;;;9.87;100.00;99467.78;6313482;20;2787744;-50
2022/09/20 01:21:19;;;;;;;;;11.33;11.00;;;;;9.90;100.00;99475.69;6283274;20;2796162;-49
2022/09/20 01:24:05;;;;;;;;;14.00;11.00;;;;;9.85;100.00;99470.59;6314494;20;2794047;-49
2022/09/20 01:27:24;;;;;;;;;12.00;10.00;;;;;9.82;100.00;99467.22;6276404;20;2788135;-51
2022/09/20 01:30:05;;;;;;;;;10.00;10.00;;;;;9.93;100.00;99474.63;6334737;20;2655523;-49
2022/09/20 01:33:15;;;;;;;;;11.00;10.80;;;;;10.04;100.00;99480.16;6335252;20;2789882;-52
2022/09/20 01:35:50;;;;;;;;;10.00;7.86;;;;;10.07;100.00;99479.97;6324478;20;1801327;-50
2022/09/20 01:39:05;;;;;;;;;9.00;9.00;;;;;10.11;100.00;99476.16;6313424;20;2736722;-50
2022/09/20 01:41:43;;;;;;;;;8.00;6.50;;;;;9.99;100.00;99479.59;6279824;20;2742964;-52
2022/09/20 01:44:54;;;;;;;;;9.00;7.00;;;;;10.15;100.00;99474.13;6282462;20;2740060;-50
2022/09/20 01:47:47;;;;;;;;;6.50;6.00;;;;;10.07;100.00;99482.66;6279628;20;2742975;-49
2022/09/20 01:50:36;;;;;;;;;12.00;10.40;;;;;10.06;100.00;99480.94;6304285;20;2789180;-47
2022/09/20 01:53:36;;;;;;;;;9.00;6.00;;;;;10.04;100.00;99482.84;6283915;20;2735730;-50
2022/09/20 01:56:54;;;;;;;;;9.50;8.00;;;;;10.08;100.00;99479.00;6309421;20;2743126;-50
2022/09/20 02:00:14;;;;;;;;;7.00;7.00;;;;;10.08;100.00;99474.53;6279562;20;2746077;-46
2022/09/20 02:03:52;;;;;;;;;6.00;6.00;;;;;9.98;100.00;99478.75;6284325;20;2684657;-47
2022/09/20 02:06:32;;;;;;;;;5.00;5.00;;;;;10.09;100.00;99489.66;6308727;20;2745213;-50
2022/09/20 02:10:13;;;;;;;;;6.00;6.00;;;;;9.91;100.00;99493.47;6283018;20;2725345;-49
2022/09/20 02:13:03;;;;;;;;;5.00;3.50;;;;;9.95;100.00;99503.03;6309534;20;2752387;-48
2022/09/20 02:16:01;;;;;;;;;8.00;5.00;;;;;9.86;100.00;99501.81;6279583;20;2746351;-53
2022/09/20 02:19:33;;;;;;;;;5.00;5.00;;;;;9.77;100.00;99507.75;6283290;20;2742978;-52
2022/09/20 02:22:40;;;;;;;;;5.25;5.00;;;;;9.74;100.00;99501.69;6329471;20;1812876;-52
2022/09/20 02:25:41;;;;;;;;;6.00;6.00;;;;;9.60;100.00;99497.16;6313831;20;2744192;-52
2022/09/20 02:28:48;;;;;;;;;7.33;6.00;;;;;9.67;100.00;99496.72;6282153;20;3454453;-48
2022/09/20 02:31:48;;;;;;;;;5.00;5.00;;;;;9.49;100.00;99491.59;6313263;20;2745132;-47
2022/09/20 02:35:05;;;;;;;;;8.00;6.00;;;;;9.68;100.00;99492.19;6287353;20;2735704;-49
2022/09/20 02:38:07;;;;;;;;;5.50;5.50;;;;;9.71;100.00;99493.84;6314335;20;2743076;-51
2022/09/20 02:41:00;;;;;;;;;8.50;6.00;;;;;9.88;100.00;99499.03;6320447;20;2735750;-46
2022/09/20 02:44:02;;;;;;;;;5.00;5.00;;;;;9.80;100.00;99494.16;6314316;20;2748192;-51
2022/09/20 02:47:09;;;;;;;;;5.00;5.00;;;;;9.68;100.00;99497.56;6297213;20;1797712;-52
2022/09/20 02:50:32;;;;;;;;;6.00;5.00;;;;;9.59;100.00;99508.88;6316662;20;2745053;-49
2022/09/20 02:53:24;;;;;;;;;5.00;5.00;;;;;9.63;100.00;99510.38;6287446;20;2750286;-54
2022/09/20 02:56:10;;;;;;;;;5.50;5.50;;;;;9.52;100.00;99511.03;6281752;20;2734624;-54
2022/09/20 02:59:23;;;;;;;;;5.50;5.00;;;;;9.35;100.00;99506.69;6333953;20;1804518;-53
2022/09/20 03:02:19;;;;;;;;;5.00;5.00;;;;;9.36;100.00;99511.09;6316030;20;2741927;-51
2022/09/20 03:05:57;;;;;;;;;6.00;6.00;;;;;9.27;100.00;99511.66;6314290;20;2740035;-52
2022/09/20 03:08:49;;;;;;;;;8.50;6.00;;;;;9.26;100.00;99512.56;6280453;20;2746241;-49
2022/09/20 03:11:55;;;;;;;;;11.00;8.00;;;;;9.26;100.00;99509.91;6282350;20;2759662;-52
2022/09/20 03:14:33;;;;;;;;;9.50;8.00;;;;;9.24;100.00;99511.81;6280662;20;2752338;-51
2022/09/20 03:17:27;;;;;;;;;6.00;6.00;;;;;9.09;100.00;99507.38;6281152;20;2743144;-48
2022/09/20 03:20:28;;;;;;;;;6.00;6.00;;;;;9.20;100.00;99504.91;6285953;20;2744048;-53
2022/09/20 03:23:53;;;;;;;;;6.00;6.00;;;;;9.17;100.00;99502.44;6316937;20;2746123;-49
2022/09/20 03:27:22;;;;;;;;;5.00;5.00;;;;;9.09;100.00;99499.34;6280392;20;2743070;-50
2022/09/20 03:30:40;;;;;;;;;6.00;6.00;;;;;9.12;100.00;99507.19;6316140;20;2737381;-49
2022/09/20 03:33:28;;;;;;;;;7.20;6.40;;;;;8.96;100.00;99493.81;6337750;20;2732975;-50
2022/09/20 03:36:11;;;;;;;;;5.00;5.00;;;;;9.02;100.00;99488.97;6314367;20;2731556;-51
2022/09/20 03:39:53;;;;;;;;;4.75;4.75;;;;;8.99;100.00;99494.50;6332064;20;1808783;-51
2022/09/20 03:42:30;;;;;;;;;8.75;5.00;;;;;9.13;100.00;99499.03;6328396;20;1819184;-52
2022/09/20 03:45:01;;;;;;;;;6.00;6.00;;;;;9.16;100.00;99496.22;6313941;20;2748295;-52
2022/09/20 03:48:42;;;;;;;;;5.00;5.00;;;;;9.28;100.00;99502.66;6298278;20;2747134;-50
2022/09/20 03:51:48;;;;;;;;;9.00;5.00;;;;;9.08;100.00;99503.81;6280862;20;2739027;-48
2022/09/20 03:54:52;;;;;;;;;9.00;6.00;;;;;9.04;100.00;99507.63;6318755;20;2740418;-53
2022/09/20 03:57:59;;;;;;;;;4.50;4.50;;;;;8.96;100.00;99516.09;6319076;20;2750668;-52
2022/09/20 04:01:18;;;;;;;;;6.00;4.00;;;;;9.01;100.00;99511.34;6299031;20;1813914;-53
2022/09/20 04:04:54;;;;;;;;;8.50;8.50;;;;;9.15;100.00;99509.69;6313276;20;2748202;-50
2022/09/20 04:07:48;;;;;;;;;9.00;6.00;;;;;9.12;100.00;99521.44;6281496;20;2742991;-48
2022/09/20 04:10:28;;;;;;;;;7.00;7.00;;;;;9.06;100.00;99520.91;6313561;20;2735707;-50
2022/09/20 04:13:31;;;;;;;;;6.75;6.75;;;;;8.99;100.00;99521.28;6332252;20;1809777;-50
2022/09/20 04:16:42;;;;;;;;;6.00;6.00;;;;;8.94;100.00;99523.34;6330989;20;1805579;-50
2022/09/20 04:19:25;;;;;;;;;6.00;6.00;;;;;9.01;100.00;99532.78;6312119;20;2742986;-51
2022/09/20 04:22:01;;;;;;;;;8.00;8.00;;;;;9.11;100.00;99530.44;6284391;20;2732612;-51
2022/09/20 04:24:43;;;;;;;;;9.00;7.50;;;;;9.04;100.00;99523.69;6293165;20;2748162;-49
2022/09/20 04:27:39;;;;;;;;;12.00;10.50;;;;;9.09;100.00;99520.75;6278597;20;2788863;-52
2022/09/20 04:30:28;;;;;;;;;14.60;11.80;;;;;9.11;100.00;99524.19;6305591;20;2796109;-53
2022/09/20 04:33:18;;;;;;;;;8.00;8.00;;;;;9.21;100.00;99526.25;6281775;20;2746166;-49
2022/09/20 04:37:04;;;;;;;;;10.50;9.00;;;;;9.41;100.00;99527.75;6293808;20;1808749;-50
2022/09/20 04:39:51;;;;;;;;;10.50;9.00;;;;;9.43;100.00;99527.69;6311121;20;2755630;-48
2022/09/20 04:43:05;;;;;;;;;7.00;6.00;;;;;9.45;100.00;99531.09;6279533;20;2737889;-56
2022/09/20 04:45:57;;;;;;;;;10.00;8.60;;;;;9.31;100.00;99529.25;6337816;20;2753398;-49
2022/09/20 04:49:24;;;;;;;;;10.00;10.00;;;;;9.20;100.00;99529.03;6313788;20;2789869;-49
2022/09/20 04:52:48;;;;;;;;;11.00;10.00;;;;;9.32;100.00;99527.44;6283566;20;2794130;-50
2022/09/20 04:55:55;;;;;;;;;8.50;8.50;;;;;9.35;100.00;99538.84;6283211;20;2754470;-52
2022/09/20 04:58:34;;;;;;;;;9.40;7.80;;;;;9.33;100.00;99530.03;6303935;20;2751295;-49
2022/09/20 05:01:18;;;;;;;;;11.00;10.00;;;;;9.17;100.00;99529.22;6270030;20;2778374;-50
2022/09/20 05:03:46;;;;;;;;;12.50;11.00;;;;;9.20;100.00;99539.75;6279997;20;2792019;-52
2022/09/20 05:07:18;;;;;;;;;11.50;10.00;;;;;9.18;100.00;99544.31;6278315;20;2796116;-51
2022/09/20 05:10:47;;;;;;;;;11.00;10.00;;;;;9.15;100.00;99539.16;6279234;20;2794605;-49
2022/09/20 05:14:01;;;;;;;;;16.00;16.00;;;;;9.28;100.00;99552.69;6310916;20;2812739;-48
2022/09/20 05:17:00;;;;;;;;;16.00;13.67;;;;;9.19;100.00;99544.25;6276606;20;3537858;-50
2022/09/20 05:20:05;;;;;;;;;20.67;16.67;;;;;9.08;100.00;99551.16;6310638;20;3555481;-50
2022/09/20 05:23:10;;;;;;;;;21.00;18.00;;;;;9.11;100.00;99550.97;6313728;20;2816929;-48
2022/09/20 05:26:25;;;;;;;;;16.00;15.33;;;;;9.22;100.00;99548.56;6282289;20;3551300;-49
2022/09/20 05:29:36;;;;;;;;;20.50;17.50;;;;;9.22;100.00;99548.56;6280158;20;2828386;-52
2022/09/20 05:32:57;;;;;;;;;19.00;18.50;;;;;9.42;100.00;99548.22;6280013;20;2831579;-50
2022/09/20 05:35:59;;;;;;;;;21.50;20.50;;;;;9.63;100.00;99548.75;6278904;20;2830510;-53
2022/09/20 05:38:51;;;;;;;;;27.00;22.50;;;;;9.64;100.00;99560.38;6280830;20;2846145;-49
2022/09/20 05:41:52;;;;;;;;;18.50;17.00;;;;;9.67;100.00;99562.88;6276692;20;2494004;-51
2022/09/20 05:45:33;;;;;;;;;30.00;22.67;;;;;9.91;100.00;99567.72;6277552;20;2858580;-50
2022/09/20 05:48:23;;;;;;;;;33.67;31.00;;;;;9.93;100.00;99573.84;6309845;20;3603346;-49
2022/09/20 05:51:11;;;;;;;;;27.00;24.50;;;;;10.06;100.00;99562.28;6305334;20;2845047;-50
2022/09/20 05:54:15;;;;;;;;;32.00;31.67;;;;;10.19;100.00;99570.44;6275713;20;2870287;-53
2022/09/20 05:57:35;;;;;;;;;40.00;35.67;;;;;10.57;100.00;99580.59;6311827;20;3591894;-49
2022/09/20 06:00:19;;;;;;;;;29.33;25.67;;;;;13.30;89.69;99586.09;6279253;20;2852405;-48
2022/09/20 06:03:29;;;;;;;;;20.00;16.50;;;;;13.28;85.75;99592.56;6305066;20;2820111;-52
2022/09/20 06:06:46;;;;;;;;;19.00;19.00;;;;;13.68;83.07;99598.53;6284511;20;2837834;-50
2022/09/20 06:10:01;;;;;;;;;12.00;11.33;;;;;15.70;75.23;99600.44;6281266;20;3515867;-48
2022/09/20 06:13:23;;;;;;;;;14.20;10.80;;;;;17.05;70.62;99598.69;6342914;20;2786848;-53
2022/09/20 06:16:06;;;;;;;;;9.00;9.00;;;;;16.32;70.83;99598.75;6283509;20;2752432;-53
2022/09/20 06:18:58;;;;;;;;;10.00;10.00;;;;;14.09;77.64;99599.91;6285861;20;2781532;-52
2022/09/20 06:21:55;;;;;;;;;7.00;7.00;;;;;12.82;83.88;99596.78;6290439;20;2738796;-56
2022/09/20 06:24:50;;;;;;;;;6.00;5.00;;;;;12.70;86.05;99597.66;6287158;20;2754505;-51
2022/09/20 06:27:27;;;;;;;;;6.00;5.00;;;;;12.58;88.21;99599.38;6287130;20;2738936;-50
2022/09/20 06:30:04;;;;;;;;;8.00;6.00;;;;;12.81;86.38;99599.59;6288784;20;2746075;-52
2022/09/20 06:32:34;;;;;;;;;6.80;6.00;;;;;12.78;86.33;99600.66;6310152;20;2743990;-52
2022/09/20 06:35:06;;;;;;;;;5.86;5.86;;;;;12.62;86.46;99594.66;6363550;20;3445153;-49
2022/09/20 06:41:36;;;;;;;;;7.00;7.00;;;;;13.06;85.87;99599.53;6293359;20;2615877;-50
2022/09/20 06:44:05;;;;;;;;;5.75;5.25;;;;;13.33;85.17;99601.19;6307078;20;1805573;-52
2022/09/20 06:46:35;;;;;;;;;5.00;5.00;;;;;13.38;84.29;99594.47;6323095;20;2742960;-52
2022/09/20 06:49:08;;;;;;;;;4.00;4.00;;;;;13.55;83.64;99593.19;6305860;20;1816081;-51
2022/09/20 06:51:38;;;;;;;;;7.00;4.50;;;;;13.38;84.08;99597.16;6318737;20;2747157;-51
2022/09/20 06:54:17;;;;;;;;;4.00;4.00;;;;;13.41;83.94;99603.31;6289264;20;2727405;-53
2022/09/20 06:56:46;;;;;;;;;5.00;5.00;;;;;13.89;83.00;99598.72;6286465;20;2748168;-52
2022/09/20 06:59:14;;;;;;;;;6.00;5.00;;;;;13.62;83.87;99601.69;6289049;20;2738787;-48
2022/09/20 07:01:42;;;;;;;;;5.00;5.00;;;;;13.70;82.99;99601.97;6299723;20;2736722;-49
2022/09/20 07:04:12;;;;;;;;;4.00;4.00;;;;;14.26;81.11;99610.22;6311315;20;2742964;-48
2022/09/20 07:06:40;;;;;;;;;4.00;4.00;;;;;18.53;66.59;99616.63;6319481;20;2752410;-50
2022/09/20 07:09:11;;;;;;;;;3.00;3.00;;;;;21.18;56.56;99627.09;6287891;20;2743016;-50
2022/09/20 07:11:39;;;;;;;;;3.00;3.00;;;;;19.67;57.99;99624.59;6292523;20;2741962;-51
2022/09/20 07:14:10;;;;;;;;;3.60;2.40;;;;;15.74;71.29;99619.97;6332056;20;2479528;-50
2022/09/20 07:16:38;;;;;;;;;4.00;4.00;;;;;15.27;74.08;99630.16;6315756;20;2756527;-50
2022/09/20 07:19:08;;;;;;;;;4.00;4.00;;;;;14.92;75.63;99631.19;6316440;20;2754475;-49
2022/09/20 07:21:35;;;;;;;;;3.00;3.00;;;;;14.99;75.40;99629.72;6285768;20;2739982;-52
2022/09/20 07:24:03;;;;;;;;;3.00;3.00;;;;;14.61;76.04;99625.56;6284492;20;2750339;-46
2022/09/20 07:26:31;;;;;;;;;2.00;2.00;;;;;14.82;75.84;99635.63;6287102;20;2748211;-52
2022/09/20 07:29:00;;;;;;;;;3.00;3.00;;;;;14.64;77.73;99646.03;6285987;20;2742241;-48
2022/09/20 07:31:29;;;;;;;;;3.50;3.00;;;;;14.65;76.63;99640.53;6287662;20;2744258;-48
2022/09/20 07:33:57;;;;;;;;;7.00;6.00;;;;;13.77;79.34;99649.13;6292619;20;2735893;-51
2022/09/20 07:36:25;;;;;;;;;5.00;5.00;;;;;13.80;80.84;99648.88;6291254;20;2733594;-50
2022/09/20 07:38:56;;;;;;;;;7.43;7.00;;;;;14.17;80.00;99651.47;6331293;20;3447101;-48
2022/09/20 07:41:25;;;;;;;;;7.50;7.50;;;;;14.57;80.68;99651.09;6319221;20;2739846;-51
2022/09/20 07:43:53;;;;;;;;;15.00;12.00;;;;;14.24;80.62;99646.44;6290780;20;2796068;-49
2022/09/20 07:46:22;;;;;;;;;42.50;35.50;;;;;14.95;77.97;99647.16;6287457;20;2857537;-50
2022/09/20 07:48:50;;;;;;;;;5.00;5.00;;;;;15.42;76.58;99650.56;6290816;20;2748253;-50
2022/09/20 07:51:17;;;;;;;;;4.00;4.00;;;;;15.61;76.14;99647.19;6285655;20;2754403;-49
2022/09/20 07:53:45;;;;;;;;;10.50;10.50;;;;;15.77;74.43;99654.91;6289332;20;2796558;-48
2022/09/20 07:56:17;;;;;;;;;5.50;5.50;;;;;16.56;72.60;99652.69;6290657;20;2745036;-50
2022/09/20 07:58:44;;;;;;;;;4.00;4.00;;;;;15.90;73.66;99650.19;6289356;20;2753405;-48
2022/09/20 08:01:21;;;;;;;;;6.00;4.00;;;;;15.92;73.58;99650.06;6292936;20;2747153;-50
2022/09/20 08:03:50;;;;;;;;;4.50;3.00;;;;;16.04;71.52;99656.31;6289864;20;2752376;-50
2022/09/20 08:06:20;;;;;;;;;3.00;3.00;;;;;15.97;72.68;99648.69;6291021;20;2732662;-49
2022/09/20 08:08:53;;;;;;;;;3.60;3.60;;;;;16.22;71.92;99660.16;6314596;20;2744066;-49
2022/09/20 08:11:24;;;;;;;;;3.00;3.00;;;;;15.97;72.94;99661.38;6319448;20;2748192;-49
2022/09/20 08:13:58;;;;;;;;;3.00;3.00;;;;;16.38;71.93;99648.88;6289169;20;2737752;-50
2022/09/20 08:16:46;;;;;;;;;3.00;3.00;;;;;16.45;71.75;99656.31;6292575;20;2743986;-48
2022/09/20 08:19:22;;;;;;;;;2.00;2.00;;;;;16.33;70.36;99668.22;6291406;20;2755500;-53
2022/09/20 08:21:52;;;;;;;;;3.00;2.00;;;;;17.27;70.80;99666.31;6290238;20;2742159;-49
2022/09/20 08:24:21;;;;;;;;;5.00;4.00;;;;;16.80;70.20;99671.41;6288348;20;2754450;-47
2022/09/20 08:26:48;;;;;;;;;2.00;2.00;;;;;15.99;72.62;99662.97;6291261;20;2723234;-48
2022/09/20 08:29:17;;;;;;;;;2.50;2.50;;;;;16.36;71.21;99669.81;6287652;20;2738783;-50
2022/09/20 08:31:46;;;;;;;;;3.00;3.00;;;;;16.49;70.97;99658.78;6288359;20;2754411;-46
2022/09/20 08:34:16;;;;;;;;;5.00;5.00;;;;;16.38;70.10;99665.13;6290859;20;2736723;-49
2022/09/20 08:36:48;;;;;;;;;3.00;3.00;;;;;16.57;69.96;99659.81;6287104;20;2752329;-49
2022/09/20 08:39:16;;;;;;;;;4.00;3.00;;;;;16.70;69.65;99665.03;6294514;20;2744109;-50
2022/09/20 08:42:33;;;;;;;;;4.00;4.00;;;;;16.77;69.71;99665.34;6288917;20;2754497;-49
2022/09/20 08:45:24;;;;;;;;;3.00;3.00;;;;;16.36;68.72;99665.25;6290349;20;2727396;-48
2022/09/20 08:48:15;;;;;;;;;3.40;2.60;;;;;16.29;68.28;99672.16;6311402;20;2750298;-47
2022/09/20 08:50:43;;;;;;;;;2.00;2.00;;;;;16.47;68.12;99667.03;6319822;20;2752433;-49
2022/09/20 08:53:14;;;;;;;;;2.00;2.00;;;;;17.17;65.86;99668.13;6289915;20;2739875;-49
2022/09/20 08:55:48;;;;;;;;;2.00;2.00;;;;;16.85;67.56;99662.84;6292065;20;2739871;-46
2022/09/20 08:58:16;;;;;;;;;2.00;2.00;;;;;16.77;66.77;99659.91;6288865;20;2735676;-48
2022/09/20 09:00:46;;;;;;;;;2.00;2.00;;;;;16.92;65.52;99668.59;6289929;20;2754418;-48
2022/09/20 09:03:18;;;;;;;;;3.00;3.00;;;;;16.44;67.53;99664.59;6324544;20;2485763;-49
2022/09/20 09:05:56;;;;;;;;;2.00;2.00;;;;;16.39;66.21;99656.84;6317353;20;2741961;-47
2022/09/20 09:08:35;;;;;;;;;3.00;3.00;;;;;16.57;64.83;99662.53;6293457;20;2747233;-49
2022/09/20 09:11:14;;;;;;;;;2.00;2.00;;;;;17.19;65.04;99666.13;6288237;20;2750347;-46
2022/09/20 09:14:47;;;;;;;;;2.00;2.00;;;;;17.11;63.80;99664.13;6287148;20;2752362;-58
2022/09/20 09:16:59;;;;;;;;;5.00;4.00;;;;;17.60;62.34;99666.13;6283751;20;2750380;-52
2022/09/20 09:19:52;;;;;;;;;2.00;2.00;;;;;17.13;63.56;99661.25;6290815;20;2737776;-48
2022/09/20 09:22:40;;;;;;;;;1.00;1.00;;;;;17.08;63.28;99652.66;6290052;20;2741995;-55
2022/09/20 09:25:15;;;;;;;;;4.00;3.00;;;;;16.84;64.32;99655.72;6287592;20;2751369;-54
2022/09/20 09:28:17;;;;;;;;;3.00;3.00;;;;;17.25;63.44;99659.31;6287535;20;2741931;-54
2022/09/20 09:30:46;;;;;;;;;3.00;2.00;;;;;17.49;63.56;99661.66;6290490;20;2741931;-54
2022/09/20 09:33:33;;;;;;;;;2.00;2.00;;;;;17.18;64.55;99656.28;6291151;20;2748266;-50
2022/09/20 09:36:09;;;;;;;;;3.50;2.00;;;;;17.55;64.33;99661.09;6289122;20;2737919;-55
2022/09/20 09:38:43;;;;;;;;;4.00;2.00;;;;;16.68;64.48;99648.88;6291028;20;2725273;-55
2022/09/20 09:41:34;;;;;;;;;2.00;2.00;;;;;16.14;66.85;99657.22;6288948;20;2752376;-53
2022/09/20 09:44:28;;;;;;;;;2.00;2.00;;;;;16.66;65.51;99660.84;6285839;20;2744038;-58
2022/09/20 09:46:57;;;;;;;;;2.00;2.00;;;;;17.44;62.69;99672.09;6287905;20;2740909;-54
2022/09/20 09:49:32;;;;;;;;;2.00;2.00;;;;;17.02;64.98;99667.63;6287773;20;2739856;-49
2022/09/20 09:52:13;;;;;;;;;2.50;2.50;;;;;16.28;64.76;99664.19;6289099;20;2738946;-54
2022/09/20 09:54:52;;;;;;;;;3.00;3.00;;;;;16.16;66.54;99656.09;6286684;20;2741021;-55
2022/09/20 09:57:54;;;;;;;;;1.50;1.50;;;;;16.18;67.77;99664.09;6288975;20;2729407;-55
2022/09/20 10:00:26;;;;;;;;;2.00;2.00;;;;;16.88;64.02;99662.59;6290563;20;2736751;-52
2022/09/20 10:03:30;;;;;;;;;1.00;1.00;;;;;16.64;63.92;99671.84;6286474;20;2737791;-59
2022/09/20 10:06:48;;;;;;;;;3.00;2.00;;;;;16.79;63.47;99663.38;6287229;20;2743091;-56
2022/09/20 10:09:37;;;;;;;;;2.00;2.00;;;;;17.03;64.65;99657.66;6291027;20;2744449;-52
2022/09/20 10:12:23;;;;;;;;;2.00;2.00;;;;;17.26;63.88;99659.16;6285924;20;2752375;-55
2022/09/20 10:15:43;;;;;;;;;2.00;2.00;;;;;16.93;63.78;99664.88;6290751;20;2750289;-54
2022/09/20 10:18:34;;;;;;;;;5.50;5.50;;;;;16.98;62.63;99657.19;6287326;20;2742456;-54
2022/09/20 10:21:42;;;;;;;;;2.00;2.00;;;;;17.34;62.35;99655.75;6289315;20;2729463;-51
2022/09/20 10:24:38;;;;;;;;;8.00;6.00;;;;;17.19;62.71;99663.41;6290532;20;2733682;-53
2022/09/20 10:27:30;;;;;;;;;3.00;3.00;;;;;16.83;62.35;99654.84;6286448;20;2744060;-55
2022/09/20 10:30:11;;;;;;;;;4.00;3.00;;;;;17.51;62.80;99655.09;6285255;20;2747167;-52
2022/09/20 10:33:00;;;;;;;;;2.00;2.00;;;;;17.81;62.76;99658.75;6300371;20;1822041;-55
2022/09/20 10:35:54;;;;;;;;;3.00;3.00;;;;;17.09;62.61;99659.84;6315271;20;2746104;-55
2022/09/20 10:38:57;;;;;;;;;2.00;2.00;;;;;17.48;62.33;99660.81;6286222;20;2728438;-55
2022/09/20 10:45:17;;;;;;;;;2.00;2.00;;;;;17.00;63.33;99650.63;6287196;20;2744160;-56
2022/09/20 10:48:18;;;;;;;;;2.00;2.00;;;;;17.80;62.42;99653.44;6290454;20;2735699;-51
2022/09/20 10:50:52;;;;;;;;;1.00;1.00;;;;;17.28;61.26;99649.03;6289188;20;2730455;-53
2022/09/20 10:54:13;;;;;;;;;2.00;2.00;;;;;17.89;59.83;99652.59;6288961;20;2736712;-53
2022/09/20 10:57:17;;;;;;;;;2.00;2.00;;;;;18.13;59.83;99649.47;6290818;20;2746140;-56
2022/09/20 11:00:22;;;;;;;;;2.00;2.00;;;;;18.37;58.87;99651.72;6293841;20;2750272;-54
2022/09/20 11:03:03;;;;;;;;;2.00;2.00;;;;;18.25;58.85;99659.19;6289226;20;2745118;-54
2022/09/20 11:06:16;;;;;;;;;1.33;1.33;;;;;17.38;62.02;99649.06;6287948;20;2752416;-56
2022/09/20 11:08:50;;;;;;;;;2.00;2.00;;;;;17.09;62.83;99652.53;6319998;20;2746135;-56
2022/09/20 11:11:48;;;;;;;;;5.00;4.00;;;;;17.26;60.61;99648.31;6290160;20;2742941;-53
2022/09/20 11:14:31;;;;;;;;;3.00;2.00;;;;;17.99;59.17;99640.72;6286102;20;2769168;-56
2022/09/20 11:17:30;;;;;;;;;5.00;4.00;;;;;17.93;59.03;99632.28;6287212;20;2756674;-55
2022/09/20 11:20:18;;;;;;;;;2.00;2.00;;;;;18.34;58.84;99646.56;6289641;20;2750300;-52
2022/09/20 11:23:12;;;;;;;;;4.00;4.00;;;;;16.85;60.56;99633.91;6291507;20;2752366;-50
2022/09/20 11:25:52;;;;;;;;;4.50;3.00;;;;;17.69;60.12;99633.56;6292160;20;2741928;-50
2022/09/20 11:28:43;;;;;;;;;1.00;1.00;;;;;17.73;59.69;99632.25;6293239;20;2737771;-54
2022/09/20 11:31:44;;;;;;;;;2.00;1.00;;;;;17.48;59.64;99621.94;6289697;20;2731646;-52
2022/09/20 11:34:32;;;;;;;;;3.00;2.00;;;;;17.77;59.67;99628.28;6289019;20;2740683;-55
2022/09/20 11:37:02;;;;;;;;;0.00;0.00;;;;;18.11;56.59;99625.13;6290403;20;2730555;-53
2022/09/20 11:39:52;;;;;;;;;5.50;3.00;;;;;18.10;55.61;99622.56;6320210;20;2741022;-56
2022/09/20 11:42:35;;;;;;;;;4.00;3.00;;;;;18.41;56.12;99620.53;6289095;20;2752381;-53
2022/09/20 11:45:05;;;;;;;;;7.00;6.00;;;;;17.96;55.13;99610.28;6288182;20;2744104;-52
2022/09/20 11:47:47;;;;;;;;;2.00;2.00;;;;;18.11;55.64;99616.13;6289368;20;2744035;-51
2022/09/20 11:51:45;;;;;;;;;1.00;1.00;;;;;18.29;56.25;99611.66;6290398;20;2724296;-53
2022/09/20 11:54:54;;;;;;;;;1.00;1.00;;;;;17.77;56.04;99614.69;6320130;20;2737821;-52
2022/09/20 11:57:23;;;;;;;;;2.00;0.50;;;;;17.76;55.21;99615.66;6296320;20;2730589;-53
2022/09/20 11:59:57;;;;;;;;;0.50;0.50;;;;;17.15;55.95;99605.00;6308382;20;1803467;-54
2022/09/20 12:02:49;;;;;;;;;2.00;2.00;;;;;16.59;57.95;99610.91;6317217;20;2738945;-51
2022/09/20 12:05:36;;;;;;;;;1.00;1.00;;;;;16.56;58.43;99614.75;6294118;20;2720105;-53
2022/09/20 12:08:28;;;;;;;;;1.00;1.00;;;;;16.67;57.77;99609.22;6310524;20;1801519;-55
2022/09/20 12:11:13;;;;;;;;;0.00;0.00;;;;;16.24;59.43;99603.97;6293010;20;2727420;-51
2022/09/20 12:13:53;;;;;;;;;1.00;1.00;;;;;16.35;58.47;99601.22;6287893;20;2726466;-51
2022/09/20 12:16:46;;;;;;;;;1.00;1.00;;;;;16.16;60.33;99601.06;6284578;20;2735664;-54
2022/09/20 12:19:35;;;;;;;;;1.00;1.00;;;;;15.92;61.31;99599.47;6291380;20;2724206;-52
2022/09/20 12:22:02;;;;;;;;;1.00;1.00;;;;;15.85;61.41;99595.59;6291682;20;2725279;-54
2022/09/20 12:24:39;;;;;;;;;2.00;2.00;;;;;15.96;61.95;99598.22;6282855;20;2736791;-55
2022/09/20 12:27:28;;;;;;;;;2.00;2.00;;;;;16.86;61.66;99589.50;6281604;20;2744037;-51
2022/09/20 12:30:20;;;;;;;;;2.00;2.00;;;;;17.42;58.71;99584.50;6282246;20;2754408;-55
2022/09/20 12:32:57;;;;;;;;;1.00;1.00;;;;;17.72;56.59;99584.38;6280265;20;2737743;-55
2022/09/20 12:35:44;;;;;;;;;2.00;2.00;;;;;17.83;56.14;99582.56;6282623;20;2744161;-53
2022/09/20 12:38:20;;;;;;;;;0.50;0.50;;;;;17.97;55.10;99576.69;6285551;20;2727379;-52
2022/09/20 12:41:13;;;;;;;;;1.00;1.00;;;;;18.23;56.94;99579.66;6281016;20;2713818;-52
2022/09/20 12:44:05;;;;;;;;;3.00;1.60;;;;;18.18;55.40;99582.78;6306749;20;2737791;-51
2022/09/20 12:46:48;;;;;;;;;2.00;1.00;;;;;17.80;55.22;99582.81;6311039;20;2731742;-54
2022/09/20 12:52:50;;;;;;;;;1.00;1.00;;;;;18.16;55.02;99579.34;6287879;20;2727349;-53
2022/09/20 12:55:39;;;;;;;;;2.00;1.00;;;;;18.60;56.78;99574.25;6288199;20;2741915;-57
2022/09/20 12:58:12;;;;;;;;;2.00;2.00;;;;;18.40;56.35;99575.31;6284302;20;2741930;-56
2022/09/20 13:00:59;;;;;;;;;1.00;1.00;;;;;17.42;57.33;99577.19;6288881;20;2737762;-52
2022/09/20 13:03:35;;;;;;;;;1.50;1.50;;;;;16.84;60.31;99577.91;6285461;20;2744105;-53